Terminal Aerodrome Forecast
Issued by NWS Greer, SC

Home | Current Version | Previous Version | Text Only | Print | Product List | Glossary On
Versions: 1 2 3 4 5 6 7 8 9 10 11 12 13
661
FTUS42 KGSP 232327
TAFGSP
TAF
KGSP 232327Z 2400/2424 04012G19KT 3SM SHRA BR OVC008
     FM240300 04012G20KT 2SM SHRA BR OVC006
      TEMPO 2403/2406 1SM +SHRA BR OVC003
     FM240600 04010G18KT 3SM SHRA BR OVC003
     FM241700 03012G20KT 4SM -SHRA BR OVC005
     FM242000 03011G19KT 5SM -SHRA BR OVC008=

USA.gov is the U.S. government's official web portal to all federal, state and local government web resources and services.